createdAt,value
2022-08-21T00:00:23.922Z,17.23
2022-08-21T00:03:02.204Z,17.21
2022-08-21T00:05:37.215Z,17.11
2022-08-21T00:08:06.851Z,17.09
2022-08-21T00:10:33.528Z,17.11
2022-08-21T00:13:05.411Z,17.11
2022-08-21T00:15:33.829Z,17.08
2022-08-21T00:18:03.337Z,17.02
2022-08-21T00:20:29.895Z,17.00
2022-08-21T00:22:57.333Z,16.98
2022-08-21T00:25:26.650Z,16.93
2022-08-21T00:27:56.071Z,16.93
2022-08-21T00:30:24.801Z,16.93
2022-08-21T00:32:53.797Z,16.91
2022-08-21T00:35:24.226Z,16.86
2022-08-21T00:37:52.864Z,16.81
2022-08-21T00:40:30.205Z,16.82
2022-08-21T00:42:56.865Z,16.79
2022-08-21T00:45:26.542Z,16.78
2022-08-21T00:47:56.066Z,16.73
2022-08-21T00:50:27.636Z,16.70
2022-08-21T00:52:54.645Z,16.66
2022-08-21T00:55:23.578Z,16.66
2022-08-21T00:57:53.130Z,16.63
2022-08-21T01:00:25.374Z,16.58
2022-08-21T01:02:52.074Z,16.57
2022-08-21T01:05:23.299Z,16.56
2022-08-21T01:07:49.899Z,16.49
2022-08-21T01:10:23.713Z,16.53
2022-08-21T01:12:56.404Z,16.45
2022-08-21T01:15:28.064Z,16.49
2022-08-21T01:17:54.899Z,16.47
2022-08-21T01:20:21.464Z,16.43
2022-08-21T01:22:48.125Z,16.40
2022-08-21T01:25:16.892Z,16.38
2022-08-21T01:27:44.706Z,16.38
2022-08-21T01:30:15.784Z,16.35
2022-08-21T01:32:42.673Z,16.31
2022-08-21T01:35:10.665Z,16.29
2022-08-21T01:37:37.432Z,16.26
2022-08-21T01:40:05.695Z,16.22
2022-08-21T01:42:34.498Z,16.21
2022-08-21T01:45:01.065Z,16.20
2022-08-21T01:47:28.042Z,16.19
2022-08-21T01:49:54.636Z,16.16
2022-08-21T01:52:21.366Z,16.14
2022-08-21T01:54:55.493Z,16.12
2022-08-21T01:57:26.083Z,16.09
2022-08-21T01:59:56.291Z,16.03
2022-08-21T02:02:22.816Z,16.04
2022-08-21T02:04:52.008Z,16.03
2022-08-21T02:07:19.635Z,16.00
2022-08-21T02:09:46.170Z,15.94
2022-08-21T02:12:13.451Z,15.98
2022-08-21T02:14:40.211Z,15.98
2022-08-21T02:17:09.988Z,15.94
2022-08-21T02:19:40.726Z,15.87
2022-08-21T02:22:11.951Z,15.87
2022-08-21T02:24:54.770Z,15.85
2022-08-21T02:27:27.900Z,15.86
2022-08-21T02:29:57.575Z,15.83
2022-08-21T02:32:27.117Z,15.83
2022-08-21T02:34:56.148Z,15.76
2022-08-21T02:37:23.903Z,15.75
2022-08-21T02:39:50.902Z,15.76
2022-08-21T02:42:17.583Z,15.70
2022-08-21T02:44:46.357Z,15.69
2022-08-21T02:47:12.895Z,15.63
2022-08-21T02:49:39.382Z,15.65
2022-08-21T02:52:06.851Z,15.64
2022-08-21T02:54:33.593Z,15.60
2022-08-21T02:57:00.099Z,15.58
2022-08-21T02:59:28.942Z,15.57
2022-08-21T03:01:56.848Z,15.52
2022-08-21T03:04:23.478Z,15.56
2022-08-21T03:06:50.020Z,15.53
2022-08-21T03:09:16.520Z,15.51
2022-08-21T03:11:43.048Z,15.45
2022-08-21T03:14:14.214Z,15.42
2022-08-21T03:16:40.706Z,15.44
2022-08-21T03:19:07.314Z,15.46
2022-08-21T03:21:34.153Z,15.45
2022-08-21T03:24:04.118Z,15.44
2022-08-21T03:26:33.475Z,15.39
2022-08-21T03:29:00.887Z,15.40
2022-08-21T03:31:31.788Z,15.39
2022-08-21T03:33:59.130Z,15.34
2022-08-21T03:36:25.967Z,15.34
2022-08-21T03:38:52.531Z,15.33
2022-08-21T03:41:19.103Z,15.30
2022-08-21T03:43:45.612Z,15.27
2022-08-21T03:46:12.490Z,15.26
2022-08-21T03:48:41.077Z,15.26
2022-08-21T03:51:09.002Z,15.23
2022-08-21T03:53:35.620Z,15.21
2022-08-21T03:56:04.680Z,15.22
2022-08-21T03:58:31.205Z,15.21
2022-08-21T04:01:00.928Z,15.20
2022-08-21T04:03:28.345Z,15.17
2022-08-21T04:05:57.233Z,15.16
2022-08-21T04:08:23.830Z,15.14
2022-08-21T04:10:56.299Z,15.12
2022-08-21T04:13:23.809Z,15.06
2022-08-21T04:15:50.417Z,15.03
2022-08-21T04:18:17.401Z,14.97
2022-08-21T04:20:50.286Z,14.97
2022-08-21T04:23:23.510Z,14.96
2022-08-21T04:25:54.036Z,14.94
2022-08-21T04:28:21.842Z,14.93
2022-08-21T04:30:51.408Z,14.90
2022-08-21T04:33:17.948Z,14.85
2022-08-21T04:35:44.708Z,14.90
2022-08-21T04:38:13.583Z,14.88
2022-08-21T04:40:40.100Z,14.85
2022-08-21T04:43:12.675Z,14.81
2022-08-21T04:45:45.434Z,14.87
2022-08-21T04:48:14.429Z,14.86
2022-08-21T04:51:03.140Z,14.89
2022-08-21T04:53:38.599Z,14.91
2022-08-21T04:56:27.217Z,14.94
2022-08-21T04:58:57.155Z,14.97
2022-08-21T05:01:31.117Z,15.04
2022-08-21T05:04:00.801Z,15.08
2022-08-21T05:06:34.153Z,15.12
2022-08-21T05:09:04.194Z,15.18
2022-08-21T05:11:32.267Z,15.22
2022-08-21T05:13:59.340Z,15.26
2022-08-21T05:16:36.501Z,15.25
2022-08-21T05:19:07.555Z,15.34
2022-08-21T05:21:35.453Z,15.99
2022-08-21T05:24:02.081Z,18.15
2022-08-21T05:26:31.266Z,19.98
2022-08-21T05:28:57.963Z,21.36
2022-08-21T05:31:27.030Z,22.56
2022-08-21T05:33:53.657Z,23.58
2022-08-21T05:36:23.350Z,24.54
2022-08-21T05:38:50.041Z,25.33
2022-08-21T05:41:16.710Z,26.11
2022-08-21T05:43:43.225Z,26.65
2022-08-21T05:46:10.249Z,27.23
2022-08-21T05:48:39.874Z,27.90
2022-08-21T05:51:12.769Z,28.22
2022-08-21T05:53:40.823Z,28.77
2022-08-21T05:56:07.831Z,29.24
2022-08-21T05:58:34.952Z,29.55
2022-08-21T06:01:03.376Z,30.03
2022-08-21T06:03:32.709Z,30.36
2022-08-21T06:05:59.457Z,30.63
2022-08-21T06:08:26.476Z,31.00
2022-08-21T06:10:55.073Z,31.57
2022-08-21T06:13:23.021Z,32.15
2022-08-21T06:15:50.796Z,32.65
2022-08-21T06:18:17.705Z,32.28
2022-08-21T06:20:44.235Z,32.57
2022-08-21T06:23:10.751Z,33.02
2022-08-21T06:25:37.290Z,32.71
2022-08-21T06:28:06.259Z,32.86
2022-08-21T06:30:35.641Z,33.41
2022-08-21T06:33:03.292Z,33.53
2022-08-21T06:35:30.720Z,33.73
2022-08-21T06:37:58.596Z,33.82
2022-08-21T06:40:29.644Z,34.28
2022-08-21T06:42:56.801Z,34.32
2022-08-21T06:45:24.949Z,34.30
2022-08-21T06:47:54.945Z,34.51
2022-08-21T06:50:21.513Z,34.87
2022-08-21T06:52:48.142Z,34.41
2022-08-21T06:55:22.236Z,34.46
2022-08-21T06:57:52.890Z,34.82
2022-08-21T07:00:22.678Z,34.91
2022-08-21T07:02:49.421Z,35.29
2022-08-21T07:05:18.192Z,35.79
2022-08-21T07:07:49.244Z,36.05
2022-08-21T07:10:22.721Z,36.13
2022-08-21T07:13:00.057Z,35.97
2022-08-21T07:15:31.076Z,36.09
2022-08-21T07:18:00.762Z,36.26
2022-08-21T07:20:29.426Z,36.37
2022-08-21T07:23:00.028Z,36.63
2022-08-21T07:25:26.738Z,37.05
2022-08-21T07:27:53.570Z,37.03
2022-08-21T07:30:20.218Z,34.86
2022-08-21T07:32:46.760Z,33.81
2022-08-21T07:35:13.553Z,34.12
2022-08-21T07:37:43.103Z,33.38
2022-08-21T07:40:10.183Z,33.05
2022-08-21T07:42:42.252Z,32.47
2022-08-21T07:45:09.726Z,32.69
2022-08-21T07:47:42.768Z,32.70
2022-08-21T07:50:14.135Z,31.67
2022-08-21T07:52:43.651Z,31.47
2022-08-21T07:55:18.179Z,33.06
2022-08-21T07:57:46.892Z,34.35
2022-08-21T08:00:18.801Z,35.43
2022-08-21T08:02:50.391Z,35.96
2022-08-21T08:05:19.116Z,35.92
2022-08-21T08:07:45.936Z,36.02
2022-08-21T08:10:12.952Z,35.94
2022-08-21T08:12:41.570Z,35.90
2022-08-21T08:15:12.982Z,35.85
2022-08-21T08:17:41.774Z,35.64
2022-08-21T08:20:11.287Z,35.33
2022-08-21T08:22:42.700Z,35.94
2022-08-21T08:25:12.056Z,36.36
2022-08-21T08:27:38.756Z,36.33
2022-08-21T08:30:07.892Z,36.20
2022-08-21T08:32:34.507Z,36.22
2022-08-21T08:35:01.276Z,35.77
2022-08-21T08:37:34.695Z,35.58
2022-08-21T08:40:03.518Z,35.77
2022-08-21T08:42:36.952Z,35.91
2022-08-21T08:45:13.915Z,36.03
2022-08-21T08:47:48.401Z,35.89
2022-08-21T08:50:22.701Z,35.65
2022-08-21T08:53:01.482Z,35.45
2022-08-21T08:55:38.232Z,35.22
2022-08-21T08:58:05.086Z,35.23
2022-08-21T09:00:34.281Z,35.11
2022-08-21T09:03:04.375Z,35.15
2022-08-21T09:05:45.927Z,35.02
2022-08-21T09:08:26.612Z,34.54
2022-08-21T09:11:10.486Z,33.98
2022-08-21T09:13:52.428Z,33.57
2022-08-21T09:17:00.374Z,32.93
2022-08-21T09:19:44.728Z,32.72
2022-08-21T09:22:26.179Z,32.52
2022-08-21T09:25:44.620Z,32.61
2022-08-21T09:28:15.053Z,32.36
2022-08-21T09:30:42.338Z,32.26
2022-08-21T09:33:13.729Z,31.84
2022-08-21T09:35:52.933Z,31.50
2022-08-21T09:38:30.656Z,31.49
2022-08-21T09:41:03.584Z,31.61
2022-08-21T09:43:31.261Z,31.49
2022-08-21T09:46:20.924Z,31.39
2022-08-21T09:48:51.112Z,31.25
2022-08-21T09:51:33.574Z,30.98
2022-08-21T09:54:05.975Z,30.52
2022-08-21T09:56:59.779Z,30.51
2022-08-21T09:59:36.761Z,30.81
2022-08-21T10:02:20.115Z,30.87
2022-08-21T10:04:52.401Z,30.94
2022-08-21T10:07:23.903Z,30.67
2022-08-21T10:10:10.774Z,30.21
2022-08-21T10:13:15.810Z,29.65
2022-08-21T10:16:01.101Z,29.62
2022-08-21T10:18:36.860Z,29.79
2022-08-21T10:21:19.313Z,29.94
2022-08-21T10:24:06.043Z,29.69
2022-08-21T10:26:51.303Z,29.65
2022-08-21T10:29:25.887Z,29.51
2022-08-21T10:32:04.022Z,29.34
2022-08-21T10:34:40.070Z,29.18
2022-08-21T10:37:25.806Z,28.96
2022-08-21T10:40:01.547Z,28.74
2022-08-21T10:42:50.971Z,28.73
2022-08-21T10:45:32.056Z,28.79
2022-08-21T10:48:05.571Z,29.02
2022-08-21T10:50:54.873Z,29.15
2022-08-21T10:53:42.481Z,28.97
2022-08-21T10:56:34.631Z,28.75
2022-08-21T10:59:15.664Z,28.63
2022-08-21T11:02:01.950Z,28.85
2022-08-21T11:04:49.521Z,29.08
2022-08-21T11:07:36.968Z,29.16
2022-08-21T11:10:13.802Z,28.97
2022-08-21T11:12:45.986Z,28.91
2022-08-21T11:15:28.917Z,28.94
2022-08-21T11:18:24.066Z,29.05
2022-08-21T11:21:13.976Z,29.03
2022-08-21T11:23:55.427Z,28.94
2022-08-21T11:26:51.274Z,28.97
2022-08-21T11:29:25.583Z,29.13
2022-08-21T11:32:09.217Z,29.25
2022-08-21T11:34:44.711Z,29.18
2022-08-21T11:37:14.013Z,29.23
2022-08-21T11:39:51.627Z,29.27
2022-08-21T11:42:31.218Z,29.22
2022-08-21T11:45:37.556Z,29.34
2022-08-21T11:51:05.970Z,29.37
2022-08-21T11:53:54.414Z,29.44
2022-08-21T11:56:45.246Z,29.34
2022-08-21T11:59:47.988Z,29.14
2022-08-21T12:02:24.624Z,29.29
2022-08-21T12:05:08.184Z,29.17
2022-08-21T12:07:47.701Z,29.22
2022-08-21T12:10:23.496Z,29.21
2022-08-21T12:12:51.307Z,29.29
2022-08-21T12:15:31.337Z,28.93
2022-08-21T12:18:07.319Z,28.67
2022-08-21T12:20:50.413Z,28.56
2022-08-21T12:23:31.917Z,28.76
2022-08-21T12:26:23.575Z,29.10
2022-08-21T12:28:52.230Z,29.31
2022-08-21T12:31:27.305Z,29.10
2022-08-21T12:34:06.454Z,29.11
2022-08-21T12:36:50.820Z,29.37
2022-08-21T12:39:25.756Z,29.53
2022-08-21T12:42:02.201Z,29.82
2022-08-21T12:44:41.772Z,29.95
2022-08-21T12:47:51.337Z,30.27
2022-08-21T12:50:25.790Z,30.32
2022-08-21T12:53:00.740Z,30.46
2022-08-21T12:55:33.544Z,30.70
2022-08-21T12:58:00.969Z,30.68
2022-08-21T13:00:30.855Z,30.58
2022-08-21T13:02:58.481Z,30.50
2022-08-21T13:05:35.427Z,30.43
2022-08-21T13:08:12.081Z,30.52
2022-08-21T13:10:41.356Z,30.37
2022-08-21T13:13:13.479Z,30.35
2022-08-21T13:15:47.430Z,30.35
2022-08-21T13:18:28.758Z,30.54
2022-08-21T13:21:12.069Z,30.61
2022-08-21T13:23:39.134Z,30.60
2022-08-21T13:26:20.289Z,30.63
2022-08-21T13:28:48.462Z,30.44
2022-08-21T13:31:27.906Z,30.12
2022-08-21T13:33:56.197Z,29.99
2022-08-21T13:36:34.706Z,29.97
2022-08-21T13:39:03.181Z,29.89
2022-08-21T13:41:35.993Z,29.79
2022-08-21T13:44:19.915Z,29.45
2022-08-21T13:46:49.281Z,29.03
2022-08-21T13:49:20.086Z,28.74
2022-08-21T13:51:47.685Z,28.60
2022-08-21T13:54:34.626Z,28.56
2022-08-21T13:57:01.680Z,28.49
2022-08-21T13:59:34.280Z,28.47
2022-08-21T14:02:05.302Z,28.39
2022-08-21T14:04:44.075Z,28.13
2022-08-21T14:07:29.872Z,28.00
2022-08-21T14:09:56.796Z,27.85
2022-08-21T14:12:43.155Z,27.89
2022-08-21T14:15:14.135Z,28.05
2022-08-21T14:17:42.610Z,28.16
2022-08-21T14:20:34.984Z,28.12
2022-08-21T14:23:01.868Z,27.97
2022-08-21T14:25:44.046Z,27.94
2022-08-21T14:28:22.346Z,27.87
2022-08-21T14:30:55.970Z,27.83
2022-08-21T14:33:32.430Z,27.84
2022-08-21T14:35:59.667Z,28.07
2022-08-21T14:38:28.129Z,27.93
2022-08-21T14:40:59.820Z,27.94
2022-08-21T14:43:29.365Z,27.86
2022-08-21T14:45:58.783Z,27.78
2022-08-21T14:48:27.518Z,27.80
2022-08-21T14:50:58.408Z,27.84
2022-08-21T14:53:26.892Z,27.89
2022-08-21T14:56:05.724Z,27.78
2022-08-21T14:58:34.118Z,27.68
2022-08-21T15:01:04.451Z,27.80
2022-08-21T15:03:32.014Z,27.74
2022-08-21T15:05:59.400Z,27.62
2022-08-21T15:08:26.105Z,27.51
2022-08-21T15:11:11.128Z,27.35
2022-08-21T15:13:39.890Z,27.34
2022-08-21T15:16:07.271Z,27.38
2022-08-21T15:18:33.915Z,27.28
2022-08-21T15:21:00.491Z,27.16
2022-08-21T15:23:27.031Z,27.07
2022-08-21T15:25:54.353Z,26.97
2022-08-21T15:28:23.661Z,27.02
2022-08-21T15:30:50.715Z,26.96
2022-08-21T15:33:18.238Z,26.92
2022-08-21T15:35:47.011Z,26.93
2022-08-21T15:38:14.914Z,26.97
2022-08-21T15:40:52.070Z,27.05
2022-08-21T15:43:41.102Z,27.13
2022-08-21T15:46:11.629Z,27.35
2022-08-21T15:48:38.254Z,27.50
2022-08-21T15:51:04.992Z,27.44
2022-08-21T15:53:36.189Z,27.44
2022-08-21T15:56:03.992Z,27.41
2022-08-21T15:58:30.677Z,27.32
2022-08-21T16:01:00.697Z,27.16
2022-08-21T16:03:30.038Z,26.99
2022-08-21T16:05:58.101Z,26.89
2022-08-21T16:08:25.964Z,26.62
2022-08-21T16:10:58.038Z,26.47
2022-08-21T16:13:28.208Z,26.38
2022-08-21T16:16:00.201Z,26.50
2022-08-21T16:18:27.866Z,26.53
2022-08-21T16:20:55.782Z,26.47
2022-08-21T16:23:23.434Z,26.48
2022-08-21T16:25:51.517Z,26.40
2022-08-21T16:28:21.070Z,26.29
2022-08-21T16:30:51.139Z,26.25
2022-08-21T16:33:23.532Z,26.23
2022-08-21T16:35:50.050Z,26.14
2022-08-21T16:38:17.018Z,26.07
2022-08-21T16:40:43.706Z,25.95
2022-08-21T16:43:10.387Z,25.88
2022-08-21T16:45:38.297Z,25.87
2022-08-21T16:48:09.632Z,25.80
2022-08-21T16:50:37.868Z,25.78
2022-08-21T16:53:05.587Z,25.67
2022-08-21T16:55:32.526Z,25.65
2022-08-21T16:58:01.029Z,25.52
2022-08-21T17:00:27.620Z,25.44
2022-08-21T17:02:55.759Z,25.31
2022-08-21T17:05:22.760Z,25.26
2022-08-21T17:07:49.583Z,25.21
2022-08-21T17:10:17.223Z,24.94
2022-08-21T17:12:57.137Z,25.01
2022-08-21T17:15:29.669Z,24.96
2022-08-21T17:17:56.614Z,24.85
2022-08-21T17:20:26.250Z,24.82
2022-08-21T17:22:54.086Z,24.51
2022-08-21T17:25:20.692Z,24.65
2022-08-21T17:27:49.217Z,24.59
2022-08-21T17:30:19.866Z,24.54
2022-08-21T17:32:51.251Z,24.48
2022-08-21T17:35:17.928Z,24.44
2022-08-21T17:37:44.477Z,24.39
2022-08-21T17:40:14.434Z,24.17
2022-08-21T17:42:43.780Z,24.23
2022-08-21T17:45:12.928Z,24.20
2022-08-21T17:47:42.282Z,24.17
2022-08-21T17:50:11.640Z,24.14
2022-08-21T17:52:39.233Z,24.09
2022-08-21T17:55:08.943Z,24.08
2022-08-21T17:57:39.611Z,24.08
2022-08-21T18:00:12.230Z,24.06
2022-08-21T18:02:43.686Z,24.03
2022-08-21T18:05:12.068Z,24.00
2022-08-21T18:07:39.406Z,23.95
2022-08-21T18:10:13.224Z,23.90
2022-08-21T18:12:41.726Z,23.86
2022-08-21T18:15:10.854Z,23.83
2022-08-21T18:17:37.531Z,23.77
2022-08-21T18:20:06.293Z,23.64
2022-08-21T18:22:34.938Z,23.61
2022-08-21T18:25:01.556Z,23.53
2022-08-21T18:27:29.819Z,23.50
2022-08-21T18:29:58.940Z,23.36
2022-08-21T18:32:31.314Z,23.39
2022-08-21T18:35:00.585Z,23.32
2022-08-21T18:37:29.492Z,23.21
2022-08-21T18:39:56.363Z,23.22
2022-08-21T18:42:28.704Z,23.16
2022-08-21T18:45:03.391Z,23.12
2022-08-21T18:47:39.876Z,23.05
2022-08-21T18:52:57.480Z,22.95
2022-08-21T18:55:24.774Z,22.91
2022-08-21T18:57:52.479Z,22.86
2022-08-21T19:00:23.730Z,22.79
2022-08-21T19:02:52.182Z,22.73
2022-08-21T19:05:21.041Z,22.70
2022-08-21T19:07:50.997Z,22.67
2022-08-21T19:10:24.352Z,22.63
2022-08-21T19:13:07.266Z,22.53
2022-08-21T19:15:36.222Z,22.53
2022-08-21T19:18:05.171Z,22.44
2022-08-21T19:20:37.281Z,22.45
2022-08-21T19:23:12.883Z,22.40
2022-08-21T19:25:44.998Z,22.34
2022-08-21T19:28:15.611Z,22.28
2022-08-21T19:30:51.141Z,22.31
2022-08-21T19:33:25.730Z,22.25
2022-08-21T19:35:52.965Z,22.20
2022-08-21T19:38:20.298Z,22.15
2022-08-21T19:40:47.103Z,22.11
2022-08-21T19:43:14.154Z,22.07
2022-08-21T19:45:40.949Z,22.03
2022-08-21T19:48:09.976Z,22.04
2022-08-21T19:50:37.077Z,21.99
2022-08-21T19:53:08.937Z,21.93
2022-08-21T19:55:53.301Z,21.90
2022-08-21T19:58:36.183Z,21.87
2022-08-21T20:01:11.549Z,21.83
2022-08-21T20:03:44.541Z,21.78
2022-08-21T20:06:11.375Z,21.76
2022-08-21T20:08:37.958Z,21.74
2022-08-21T20:11:05.317Z,21.69
2022-08-21T20:13:33.978Z,21.67
2022-08-21T20:16:14.023Z,21.61
2022-08-21T20:18:42.956Z,21.55
2022-08-21T20:21:13.209Z,21.51
2022-08-21T20:23:48.702Z,21.43
2022-08-21T20:26:16.652Z,21.39
2022-08-21T20:28:44.654Z,21.33
2022-08-21T20:31:11.299Z,21.27
2022-08-21T20:33:42.103Z,21.20
2022-08-21T20:36:09.439Z,21.14
2022-08-21T20:38:36.955Z,21.00
2022-08-21T20:41:09.955Z,21.00
2022-08-21T20:43:47.956Z,20.85
2022-08-21T20:46:22.632Z,20.85
2022-08-21T20:48:50.038Z,20.81
2022-08-21T20:51:36.029Z,20.80
2022-08-21T20:54:05.647Z,20.76
2022-08-21T20:56:32.901Z,20.72
2022-08-21T20:59:12.065Z,20.71
2022-08-21T21:01:39.602Z,20.69
2022-08-21T21:04:43.078Z,20.53
2022-08-21T21:07:16.508Z,20.64
2022-08-21T21:09:48.997Z,20.65
2022-08-21T21:12:28.173Z,20.66
2022-08-21T21:15:05.362Z,20.57
2022-08-21T21:17:45.818Z,20.59
2022-08-21T21:20:30.294Z,20.59
2022-08-21T21:23:13.773Z,20.56
2022-08-21T21:25:53.992Z,20.57
2022-08-21T21:29:02.699Z,20.52
2022-08-21T21:31:31.080Z,20.49
2022-08-21T21:33:59.569Z,20.46
2022-08-21T21:40:09.121Z,20.42
2022-08-21T21:43:17.080Z,20.34
2022-08-21T21:45:49.641Z,20.35
2022-08-21T21:48:37.949Z,20.26
2022-08-21T21:51:20.140Z,20.20
2022-08-21T21:54:00.563Z,20.14
2022-08-21T21:56:40.440Z,20.11
2022-08-21T21:59:31.487Z,20.04
2022-08-21T22:02:13.503Z,19.96
2022-08-21T22:04:52.235Z,19.93
2022-08-21T22:07:21.476Z,19.90
2022-08-21T22:10:05.751Z,19.86
2022-08-21T22:12:49.575Z,19.82
2022-08-21T22:15:27.944Z,19.76
2022-08-21T22:18:11.305Z,19.72
2022-08-21T22:21:05.288Z,19.61
2022-08-21T22:23:42.080Z,19.61
2022-08-21T22:26:14.540Z,19.60
2022-08-21T22:28:44.135Z,19.54
2022-08-21T22:31:24.388Z,19.52
2022-08-21T22:34:18.425Z,19.51
2022-08-21T22:36:59.314Z,19.49
2022-08-21T22:39:38.812Z,19.44
2022-08-21T22:42:14.106Z,19.44
2022-08-21T22:44:56.651Z,19.42
2022-08-21T22:47:33.751Z,19.36
2022-08-21T22:50:05.399Z,19.34
2022-08-21T22:52:35.861Z,19.32
2022-08-21T22:55:25.706Z,19.29
2022-08-21T22:58:09.807Z,19.25
2022-08-21T23:00:51.676Z,19.25
2022-08-21T23:03:32.562Z,19.18
2022-08-21T23:06:03.203Z,19.21
2022-08-21T23:08:39.695Z,19.18
2022-08-21T23:11:23.464Z,19.17
2022-08-21T23:13:53.115Z,19.07
2022-08-21T23:16:36.698Z,19.11
2022-08-21T23:19:08.735Z,19.11
2022-08-21T23:21:35.651Z,19.11
2022-08-21T23:24:32.563Z,19.08
2022-08-21T23:27:21.210Z,19.09
2022-08-21T23:30:07.385Z,19.05
2022-08-21T23:32:52.410Z,19.04
2022-08-21T23:35:57.754Z,19.00
2022-08-21T23:38:51.266Z,18.99
2022-08-21T23:41:34.463Z,18.96
2022-08-21T23:44:16.077Z,18.95
2022-08-21T23:46:54.711Z,18.96
2022-08-21T23:49:45.896Z,18.91
2022-08-21T23:52:42.919Z,18.93
2022-08-21T23:55:30.698Z,18.94
2022-08-21T23:58:39.657Z,18.92
